Time;durP1;ratioP1;P1;durP2;ratioP2;P2;SDS_P1;SDS_P2;PMS_P1;PMS_P2;Temp;Humidity;BMP_temperature;BMP_pressure;BME280_temperature;BME280_humidity;BME280_pressure;Samples;Min_cycle;Max_cycle;Signal;HPM_P1;HPM_P2
2023/11/11 00:00:28;;;;;;;;;;;;;;;19.70;55.28;99501.59;5041386;28;6071;-66
2023/11/11 00:02:55;;;;;;;;;;;;;;;19.70;55.27;99503.72;5038275;28;2195;-66
2023/11/11 00:05:24;;;;;;;;;;;;;;;19.70;55.10;99509.47;5038812;28;2359;-66
2023/11/11 00:07:51;;;;;;;;;;;;;;;19.71;55.24;99510.94;5039068;28;2216;-66
2023/11/11 00:10:17;;;;;;;;;;;;;;;19.69;55.28;99505.88;5038611;28;2284;-66
2023/11/11 00:12:44;;;;;;;;;;;;;;;19.68;55.25;99501.50;5037720;28;2581;-66
2023/11/11 00:15:10;;;;;;;;;;;;;;;19.67;55.30;99506.50;5039249;28;2421;-66
2023/11/11 00:17:37;;;;;;;;;;;;;;;19.66;55.10;99496.44;5036164;28;2342;-66
2023/11/11 00:20:06;;;;;;;;;;;;;;;19.67;55.31;99497.16;5040258;28;2181;-66
2023/11/11 00:22:32;;;;;;;;;;;;;;;19.66;55.18;99493.56;5038982;28;2318;-66
2023/11/11 00:24:58;;;;;;;;;;;;;;;19.64;55.27;99484.91;5041076;28;2196;-66
2023/11/11 00:27:27;;;;;;;;;;;;;;;19.63;55.24;99489.19;5036754;28;2171;-66
2023/11/11 00:29:56;;;;;;;;;;;;;;;19.64;55.06;99484.91;5039253;28;2302;-65
2023/11/11 00:32:22;;;;;;;;;;;;;;;19.65;55.12;99486.38;5039502;28;6170;-66
2023/11/11 00:34:49;;;;;;;;;;;;;;;19.64;55.12;99481.28;5039214;28;2341;-66
2023/11/11 00:37:17;;;;;;;;;;;;;;;19.63;55.16;99482.69;5039974;28;2271;-66
2023/11/11 00:39:44;;;;;;;;;;;;;;;19.62;55.23;99486.97;5037987;28;2201;-66
2023/11/11 00:42:10;;;;;;;;;;;;;;;19.62;55.23;99486.97;5040348;28;2176;-66
2023/11/11 00:44:41;;;;;;;;;;;;;;;19.62;55.09;99484.09;5040628;28;2299;-66
2023/11/11 00:47:07;;;;;;;;;;;;;;;19.61;55.20;99491.28;5040256;28;2195;-65
2023/11/11 00:49:34;;;;;;;;;;;;;;;19.61;55.25;99492.00;5039264;28;2331;-66
2023/11/11 00:52:00;;;;;;;;;;;;;;;19.61;55.02;99491.28;5039436;28;2231;-66
2023/11/11 00:54:27;;;;;;;;;;;;;;;19.62;55.15;99493.44;5040961;28;2488;-66
2023/11/11 00:56:53;;;;;;;;;;;;;;;19.62;55.08;99484.09;5055660;28;2255;-66
2023/11/11 00:59:19;;;;;;;;;;;;;;;19.62;55.46;99484.84;5036917;28;2271;-66
2023/11/11 01:01:46;;;;;;;;;;;;;;;19.65;54.88;99479.88;5038981;28;6279;-66
2023/11/11 01:04:12;;;;;;;;;;;;;;;19.65;54.95;99483.50;5038513;28;2457;-66
2023/11/11 01:06:39;;;;;;;;;;;;;;;19.68;54.95;99478.53;5039191;28;2280;-66
2023/11/11 01:09:06;;;;;;;;;;;;;;;19.69;55.03;99485.75;5038883;28;2383;-66
2023/11/11 01:11:33;;;;;;;;;;;;;;;19.69;55.00;99485.03;5039542;28;2228;-66
2023/11/11 01:14:00;;;;;;;;;;;;;;;19.70;54.88;99480.75;5039389;28;2280;-66
2023/11/11 01:16:27;;;;;;;;;;;;;;;19.70;54.98;99480.75;5038684;28;2171;-66
2023/11/11 01:18:53;;;;;;;;;;;;;;;19.69;55.03;99485.03;5038227;28;2211;-66
2023/11/11 01:21:20;;;;;;;;;;;;;;;19.69;54.91;99477.16;5039753;28;2311;-66
2023/11/11 01:23:47;;;;;;;;;;;;;;;19.69;55.01;99487.91;5036815;28;2222;-66
2023/11/11 01:26:13;;;;;;;;;;;;;;;19.67;54.85;99477.78;5037754;28;2204;-65
2023/11/11 01:28:40;;;;;;;;;;;;;;;19.66;54.98;99487.81;5034346;28;2285;-66
2023/11/11 01:31:07;;;;;;;;;;;;;;;19.69;54.86;99485.03;5036909;28;6093;-65
2023/11/11 01:33:33;;;;;;;;;;;;;;;19.66;54.94;99482.06;5039706;28;2280;-66
2023/11/11 01:36:01;;;;;;;;;;;;;;;19.66;54.89;99481.34;5039937;28;2153;-66
2023/11/11 01:38:28;;;;;;;;;;;;;;;19.65;55.12;99480.63;5038921;28;2279;-66
2023/11/11 01:40:54;;;;;;;;;;;;;;;19.65;55.08;99480.63;5039865;28;2145;-66
2023/11/11 01:43:21;;;;;;;;;;;;;;;19.64;55.12;99484.91;5036195;28;2307;-66
2023/11/11 01:45:47;;;;;;;;;;;;;;;19.65;54.99;99477.00;5038532;28;2251;-66
2023/11/11 01:48:13;;;;;;;;;;;;;;;19.64;55.08;99473.41;5036647;28;2244;-66
2023/11/11 01:50:42;;;;;;;;;;;;;;;19.64;55.02;99464.06;5053832;28;2214;-66
2023/11/11 01:53:10;;;;;;;;;;;;;;;19.61;55.16;99456.81;5039025;28;2218;-66
2023/11/11 01:55:37;;;;;;;;;;;;;;;19.61;55.11;99457.53;5027182;28;2303;-66
2023/11/11 01:58:04;;;;;;;;;;;;;;;19.60;55.04;99453.19;5020159;28;2288;-66
2023/11/11 02:00:35;;;;;;;;;;;;;;;19.58;55.08;99453.13;5038206;28;6374;-65
2023/11/11 02:03:02;;;;;;;;;;;;;;;19.60;55.09;99452.47;5035716;28;2418;-65
2023/11/11 02:05:29;;;;;;;;;;;;;;;19.57;55.21;99445.94;5038048;28;2224;-66
2023/11/11 02:07:58;;;;;;;;;;;;;;;19.57;55.07;99445.94;5036861;28;2227;-66
2023/11/11 02:10:24;;;;;;;;;;;;;;;19.57;55.19;99440.19;5037542;28;2255;-66
2023/11/11 02:12:55;;;;;;;;;;;;;;;19.56;54.90;99438.75;5022339;28;2224;-66
2023/11/11 02:15:22;;;;;;;;;;;;;;;19.55;55.10;99445.88;5039043;28;2203;-66
2023/11/11 02:17:49;;;;;;;;;;;;;;;19.55;55.12;99451.63;5036963;28;2250;-66
2023/11/11 02:20:15;;;;;;;;;;;;;;;19.54;55.16;99441.56;5035106;28;2298;-65
2023/11/11 02:22:41;;;;;;;;;;;;;;;19.55;54.98;99450.91;5039728;28;2208;-65
2023/11/11 02:25:11;;;;;;;;;;;;;;;19.54;55.07;99447.31;5038511;28;2290;-66
2023/11/11 02:27:37;;;;;;;;;;;;;;;19.55;54.98;99443.00;5034492;28;2235;-66
2023/11/11 02:30:04;;;;;;;;;;;;;;;19.56;55.02;99441.63;5033569;28;6386;-66
2023/11/11 02:32:31;;;;;;;;;;;;;;;19.57;55.10;99433.72;5034550;28;2407;-66
2023/11/11 02:34:58;;;;;;;;;;;;;;;19.58;55.05;99426.56;5036645;28;2209;-66
2023/11/11 02:37:24;;;;;;;;;;;;;;;19.59;55.03;99433.78;5037773;28;2260;-65
2023/11/11 02:39:50;;;;;;;;;;;;;;;19.60;54.84;99429.50;5036048;28;2186;-66
2023/11/11 02:42:17;;;;;;;;;;;;;;;19.64;54.71;99438.22;5038037;28;2347;-66
2023/11/11 02:44:43;;;;;;;;;;;;;;;19.61;54.92;99434.56;5038363;28;2230;-66
2023/11/11 02:47:10;;;;;;;;;;;;;;;19.63;54.91;99440.38;5036648;28;2147;-66
2023/11/11 02:49:36;;;;;;;;;;;;;;;19.62;54.92;99436.03;5038788;28;2339;-66
2023/11/11 02:52:04;;;;;;;;;;;;;;;19.61;54.89;99437.44;5035777;28;2267;-66
2023/11/11 02:54:30;;;;;;;;;;;;;;;19.60;54.73;99433.09;5037454;28;2227;-66
2023/11/11 02:56:57;;;;;;;;;;;;;;;19.59;54.90;99440.25;5034659;28;2294;-72
2023/11/11 02:59:23;;;;;;;;;;;;;;;19.60;54.77;99438.84;5039223;28;2196;-65
2023/11/11 03:01:52;;;;;;;;;;;;;;;19.60;54.95;99435.97;5037963;28;6356;-68
2023/11/11 03:04:19;;;;;;;;;;;;;;;19.59;54.88;99437.38;5042825;28;2176;-68
2023/11/11 03:06:46;;;;;;;;;;;;;;;19.58;54.92;99441.66;5040042;28;3026;-68
2023/11/11 03:09:12;;;;;;;;;;;;;;;19.57;54.90;99434.47;5039401;28;2262;-68
2023/11/11 03:11:39;;;;;;;;;;;;;;;19.57;54.84;99434.47;5042106;28;2297;-68
2023/11/11 03:14:06;;;;;;;;;;;;;;;19.56;54.88;99438.75;5042044;28;2226;-67
2023/11/11 03:16:36;;;;;;;;;;;;;;;19.57;54.96;99427.97;5040932;28;2239;-68
2023/11/11 03:19:03;;;;;;;;;;;;;;;19.55;54.91;99420.03;5044039;28;2168;-68
2023/11/11 03:21:30;;;;;;;;;;;;;;;19.55;54.86;99420.03;5038917;28;2148;-68
2023/11/11 03:23:56;;;;;;;;;;;;;;;19.54;54.79;99418.59;5042415;28;2180;-68
2023/11/11 03:26:23;;;;;;;;;;;;;;;19.55;55.09;99425.78;5055649;28;2215;-68
2023/11/11 03:28:49;;;;;;;;;;;;;;;19.53;55.13;99417.13;5040472;28;2187;-68
2023/11/11 03:31:19;;;;;;;;;;;;;;;19.52;54.94;99421.41;5040377;28;6312;-68
2023/11/11 03:33:48;;;;;;;;;;;;;;;19.52;55.12;99421.41;5039215;28;2722;-68
2023/11/11 03:36:15;;;;;;;;;;;;;;;19.50;55.04;99418.47;5039113;28;2212;-68
2023/11/11 03:38:42;;;;;;;;;;;;;;;19.50;54.91;99423.50;5036135;28;2258;-68
2023/11/11 03:41:08;;;;;;;;;;;;;;;19.50;54.98;99424.22;5040536;28;2239;-68
2023/11/11 03:43:37;;;;;;;;;;;;;;;19.51;55.09;99413.47;5038961;28;2251;-68
2023/11/11 03:46:04;;;;;;;;;;;;;;;19.49;54.93;99411.25;5041948;28;2260;-68
2023/11/11 03:48:30;;;;;;;;;;;;;;;19.49;55.05;99411.25;5041518;28;2427;-68
2023/11/11 03:50:57;;;;;;;;;;;;;;;19.50;54.96;99415.59;5039433;28;2565;-68
2023/11/11 03:53:25;;;;;;;;;;;;;;;19.52;54.84;99409.19;5042545;28;2184;-68
2023/11/11 03:55:51;;;;;;;;;;;;;;;19.52;54.76;99409.91;5039371;28;2164;-68
2023/11/11 03:58:18;;;;;;;;;;;;;;;19.55;54.81;99408.56;5039684;28;2156;-68
2023/11/11 04:00:44;;;;;;;;;;;;;;;19.56;54.66;99415.78;5039984;28;6398;-68
2023/11/11 04:03:11;;;;;;;;;;;;;;;19.58;54.79;99406.47;5040232;28;2248;-68
2023/11/11 04:05:38;;;;;;;;;;;;;;;19.60;54.80;99412.25;5039423;28;2164;-68
2023/11/11 04:08:04;;;;;;;;;;;;;;;19.59;54.65;99414.41;5038416;28;2153;-68
2023/11/11 04:10:31;;;;;;;;;;;;;;;19.59;54.69;99411.53;5038004;28;2283;-68
2023/11/11 04:12:58;;;;;;;;;;;;;;;19.61;54.66;99414.47;5037082;28;2277;-68
2023/11/11 04:15:25;;;;;;;;;;;;;;;19.58;54.78;99412.94;5040114;28;2235;-68
2023/11/11 04:17:51;;;;;;;;;;;;;;;19.59;54.65;99407.94;5038246;28;2196;-68
2023/11/11 04:20:18;;;;;;;;;;;;;;;19.59;54.68;99414.41;5038320;28;2203;-68
2023/11/11 04:22:44;;;;;;;;;;;;;;;19.61;54.73;99422.34;5038830;28;2220;-68
2023/11/11 04:25:11;;;;;;;;;;;;;;;19.61;54.70;99416.63;5042446;28;2344;-68
2023/11/11 04:27:38;;;;;;;;;;;;;;;19.62;54.75;99413.06;5037052;28;2219;-68
2023/11/11 04:30:06;;;;;;;;;;;;;;;19.62;54.63;99418.78;5040179;28;6191;-67
2023/11/11 04:32:33;;;;;;;;;;;;;;;19.62;54.49;99418.06;5038843;28;2191;-68
2023/11/11 04:35:00;;;;;;;;;;;;;;;19.64;54.80;99423.88;5038891;28;2224;-68
2023/11/11 04:37:26;;;;;;;;;;;;;;;19.65;54.63;99428.94;5035374;28;2269;-68
2023/11/11 04:39:57;;;;;;;;;;;;;;;19.63;54.59;99426.00;5040933;28;2426;-68
2023/11/11 04:42:24;;;;;;;;;;;;;;;19.65;54.69;99428.94;5038533;28;2461;-68
2023/11/11 04:44:53;;;;;;;;;;;;;;;19.63;54.69;99431.75;5039332;28;2228;-68
2023/11/11 04:47:20;;;;;;;;;;;;;;;19.64;54.79;99432.47;5035839;28;2272;-68
2023/11/11 04:49:48;;;;;;;;;;;;;;;19.64;54.78;99427.47;5038345;28;2322;-68
2023/11/11 04:52:14;;;;;;;;;;;;;;;19.64;54.63;99421.72;5035826;28;2572;-68
2023/11/11 04:54:41;;;;;;;;;;;;;;;19.65;54.69;99434.69;5038075;28;2248;-68
2023/11/11 04:57:08;;;;;;;;;;;;;;;19.66;54.81;99436.13;5038450;28;2308;-68
2023/11/11 04:59:34;;;;;;;;;;;;;;;19.67;54.75;99431.84;5039798;28;2275;-68
2023/11/11 05:02:01;;;;;;;;;;;;;;;19.67;54.64;99431.84;5037909;28;6151;-68
2023/11/11 05:04:27;;;;;;;;;;;;;;;19.66;54.83;99436.13;5039620;28;2747;-68
2023/11/11 05:06:54;;;;;;;;;;;;;;;19.68;54.68;99429.72;5038293;28;2248;-68
2023/11/11 05:09:20;;;;;;;;;;;;;;;19.69;54.65;99433.34;5036643;28;2299;-68
2023/11/11 05:11:47;;;;;;;;;;;;;;;19.67;54.78;99436.84;5036881;28;2219;-68
2023/11/11 05:14:17;;;;;;;;;;;;;;;19.65;54.78;99428.94;5039371;28;2253;-68
2023/11/11 05:16:50;;;;;;;;;;;;;;;19.66;54.82;99436.13;5038877;28;2303;-68
2023/11/11 05:19:20;;;;;;;;;;;;;;;19.67;54.96;99436.84;5037738;28;2307;-70
2023/11/11 05:21:46;;;;;;;;;;;;;;;19.27;53.24;99431.47;5036140;28;2302;-67
2023/11/11 05:24:13;;;;;;;;;;;;;;;19.44;52.99;99438.41;5038432;28;2232;-68
2023/11/11 05:26:40;;;;;;;;;;;;;;;19.54;53.65;99427.19;5040291;28;2238;-68
2023/11/11 05:29:06;;;;;;;;;;;;;;;19.61;53.52;99433.84;5035592;28;2266;-69
2023/11/11 05:31:33;;;;;;;;;;;;;;;19.64;53.82;99433.22;5039983;28;6466;-69
2023/11/11 05:34:00;;;;;;;;;;;;;;;19.65;53.55;99431.81;5036980;28;2300;-69
2023/11/11 05:36:27;;;;;;;;;;;;;;;19.66;54.04;99439.00;5037528;28;2151;-69
2023/11/11 05:38:54;;;;;;;;;;;;;;;19.67;54.02;99439.72;5037697;28;2594;-69
2023/11/11 05:41:21;;;;;;;;;;;;;;;19.67;54.19;99442.59;5034375;28;2718;-69
2023/11/11 05:43:47;;;;;;;;;;;;;;;19.67;54.41;99443.31;5037828;28;2287;-69
2023/11/11 05:46:13;;;;;;;;;;;;;;;19.67;54.44;99446.19;5038325;28;2251;-69
2023/11/11 05:48:41;;;;;;;;;;;;;;;19.69;54.28;99445.56;5036049;28;2246;-69
2023/11/11 05:51:08;;;;;;;;;;;;;;;19.68;54.35;99444.06;5037757;28;2433;-69
2023/11/11 05:53:35;;;;;;;;;;;;;;;19.68;54.54;99446.94;5038318;28;2180;-69
2023/11/11 05:56:02;;;;;;;;;;;;;;;19.70;54.32;99449.91;5035809;28;2276;-69
2023/11/11 05:58:28;;;;;;;;;;;;;;;19.70;54.31;99452.78;5038532;28;2177;-70
2023/11/11 06:00:55;;;;;;;;;;;;;;;19.70;54.36;99461.41;5036981;28;6137;-69
2023/11/11 06:03:21;;;;;;;;;;;;;;;19.72;54.63;99466.44;5037421;28;2509;-69
2023/11/11 06:05:48;;;;;;;;;;;;;;;19.71;54.65;99476.47;5035788;28;2321;-69
2023/11/11 06:08:14;;;;;;;;;;;;;;;19.72;54.67;99480.81;5037484;28;2778;-69
2023/11/11 06:10:41;;;;;;;;;;;;;;;19.72;54.81;99477.94;5039822;28;2274;-69
2023/11/11 06:13:07;;;;;;;;;;;;;;;19.71;54.71;99487.97;5038581;28;2239;-69
2023/11/11 06:15:38;;;;;;;;;;;;;;;19.72;54.69;99483.66;5033537;28;2717;-69
2023/11/11 06:18:05;;;;;;;;;;;;;;;19.72;54.54;99490.16;5035007;28;2290;-69
2023/11/11 06:20:31;;;;;;;;;;;;;;;19.73;54.56;99502.38;5038593;28;2241;-69
2023/11/11 06:22:57;;;;;;;;;;;;;;;19.73;54.57;99493.75;5036463;28;2335;-69
2023/11/11 06:25:27;;;;;;;;;;;;;;;19.73;54.70;99499.50;5039187;28;2263;-69
2023/11/11 06:27:53;;;;;;;;;;;;;;;19.73;54.62;99499.50;5039169;28;2223;-69
2023/11/11 06:30:20;;;;;;;;;;;;;;;19.74;54.82;99490.19;5036454;28;6229;-69
2023/11/11 06:32:46;;;;;;;;;;;;;;;19.73;54.75;99491.63;5036989;28;2258;-70
2023/11/11 06:35:13;;;;;;;;;;;;;;;19.73;54.91;99491.63;5040315;28;2645;-70
2023/11/11 06:37:40;;;;;;;;;;;;;;;19.72;54.88;99489.41;5042808;28;2324;-69
2023/11/11 06:40:09;;;;;;;;;;;;;;;19.73;54.67;99485.88;5043684;28;2175;-71
2023/11/11 06:42:36;;;;;;;;;;;;;;;19.73;54.60;99488.03;5038894;28;2307;-70
2023/11/11 06:45:03;;;;;;;;;;;;;;;18.75;50.29;99485.88;5041724;28;2294;-72
2023/11/11 06:47:29;;;;;;;;;;;;;;;17.71;47.44;99491.75;5042906;28;2255;-70
2023/11/11 06:49:56;;;;;;;;;;;;;;;18.55;47.97;99491.69;5039056;28;2350;-70
2023/11/11 06:52:23;;;;;;;;;;;;;;;19.06;47.75;99493.28;5042318;28;2291;-70
2023/11/11 06:54:49;;;;;;;;;;;;;;;19.30;49.72;99504.03;5039318;28;2277;-70
2023/11/11 06:57:16;;;;;;;;;;;;;;;19.41;51.02;99509.38;5041495;28;2246;-70
2023/11/11 06:59:43;;;;;;;;;;;;;;;19.47;51.46;99505.97;5036746;28;2276;-70
2023/11/11 07:02:12;;;;;;;;;;;;;;;19.51;51.88;99517.53;5037910;28;6269;-70
2023/11/11 07:04:40;;;;;;;;;;;;;;;19.53;52.13;99514.72;5033101;28;2438;-70
2023/11/11 07:07:07;;;;;;;;;;;;;;;19.58;52.15;99510.56;5035626;28;2243;-69
2023/11/11 07:09:38;;;;;;;;;;;;;;;19.65;52.15;99520.06;5055927;28;2262;-71
2023/11/11 07:12:05;;;;;;;;;;;;;;;19.10;51.00;99516.34;5039104;28;2211;-71
2023/11/11 07:14:31;;;;;;;;;;;;;;;18.41;48.92;99518.47;5042577;28;2167;-70
2023/11/11 07:16:57;;;;;;;;;;;;;;;18.31;47.33;99512.44;5036859;28;2187;-70
2023/11/11 07:19:24;;;;;;;;;;;;;;;18.27;46.55;99515.16;5039408;28;2935;-71
2023/11/11 07:21:50;;;;;;;;;;;;;;;18.29;45.71;99515.22;5043262;28;2078;-71
2023/11/11 07:24:37;;;;;;;;;;;;;;;18.16;45.16;99513.34;5042158;28;2125;-74
2023/11/11 07:27:05;;;;;;;;;;;;;;;18.14;44.76;99516.13;5041438;28;2151;-70
2023/11/11 07:29:32;;;;;;;;;;;;;;;18.11;44.73;99514.59;5049247;28;1811;-71
2023/11/11 07:31:59;;;;;;;;;;;;;;;18.03;44.35;99523.66;5040242;28;6068;-71
2023/11/11 07:34:25;;;;;;;;;;;;;;;17.97;44.29;99527.03;5041739;28;2087;-71
2023/11/11 07:36:52;;;;;;;;;;;;;;;17.98;43.99;99524.91;5041845;28;2078;-70
2023/11/11 07:39:19;;;;;;;;;;;;;;;17.98;43.88;99528.53;5039138;28;2132;-70
2023/11/11 07:41:46;;;;;;;;;;;;;;;18.02;43.61;99519.31;5041236;28;1597;-71
2023/11/11 07:44:13;;;;;;;;;;;;;;;17.94;43.72;99528.38;5036451;28;2118;-70
2023/11/11 07:46:39;;;;;;;;;;;;;;;18.11;43.62;99528.94;5036546;28;2207;-70
2023/11/11 07:49:12;;;;;;;;;;;;;;;18.49;43.84;99537.38;5037688;28;2304;-70
2023/11/11 07:51:39;;;;;;;;;;;;;;;18.80;44.21;99536.22;5039700;28;2129;-71
2023/11/11 07:54:06;;;;;;;;;;;;;;;18.95;44.45;99525.94;5039402;28;2125;-71
2023/11/11 07:56:33;;;;;;;;;;;;;;;19.04;45.59;99519.06;5037519;28;2259;-71
2023/11/11 07:59:00;;;;;;;;;;;;;;;19.08;46.12;99524.16;5039233;28;2146;-71
2023/11/11 08:01:26;;;;;;;;;;;;;;;19.13;45.80;99531.50;5041574;28;6071;-71
2023/11/11 08:03:53;;;;;;;;;;;;;;;19.16;46.35;99528.00;5039359;28;2046;-71
2023/11/11 08:06:20;;;;;;;;;;;;;;;19.19;46.94;99535.28;5041156;28;2058;-71
2023/11/11 08:08:47;;;;;;;;;;;;;;;19.23;47.66;99535.41;5040668;28;2155;-70
2023/11/11 08:11:15;;;;;;;;;;;;;;;19.28;47.49;99541.25;5036652;28;2101;-79
2023/11/11 08:13:41;;;;;;;;;;;;;;;18.24;45.09;99542.28;5041090;28;2320;-71
2023/11/11 08:16:08;;;;;;;;;;;;;;;18.40;45.23;99537.09;5035085;28;2511;-71
2023/11/11 08:18:34;;;;;;;;;;;;;;;18.77;45.33;99544.03;5039095;28;2082;-73
2023/11/11 08:21:13;;;;;;;;;;;;;;;18.99;45.94;99546.16;5039237;28;2039;-72
2023/11/11 08:23:39;;;;;;;;;;;;;;;19.10;46.44;99542.16;5036737;28;2640;-72
2023/11/11 08:26:06;;;;;;;;;;;;;;;19.16;46.86;99547.38;5038835;28;2122;-72
2023/11/11 08:28:32;;;;;;;;;;;;;;;19.18;47.19;99542.44;5039498;28;2370;-72
2023/11/11 08:30:59;;;;;;;;;;;;;;;19.21;47.26;99548.97;5038572;28;6134;-71
2023/11/11 08:33:29;;;;;;;;;;;;;;;19.23;47.42;99551.88;5039465;28;1667;-72
2023/11/11 08:35:56;;;;;;;;;;;;;;;19.24;47.36;99554.09;5038431;28;2137;-72
2023/11/11 08:38:22;;;;;;;;;;;;;;;19.25;47.45;99546.22;5037039;28;2227;-72
2023/11/11 08:40:49;;;;;;;;;;;;;;;19.27;47.64;99554.16;5040888;28;2089;-72
2023/11/11 08:43:15;;;;;;;;;;;;;;;19.28;47.60;99558.47;5036439;28;2211;-71
2023/11/11 08:45:42;;;;;;;;;;;;;;;19.30;47.75;99549.94;5036166;28;2307;-72
2023/11/11 08:48:08;;;;;;;;;;;;;;;19.30;47.84;99556.41;5038425;28;2070;-72
2023/11/11 08:50:35;;;;;;;;;;;;;;;19.31;47.83;99562.88;5040316;28;2151;-72
2023/11/11 08:53:01;;;;;;;;;;;;;;;19.32;47.76;99565.06;5039165;28;2187;-72
2023/11/11 08:55:28;;;;;;;;;;;;;;;19.33;47.65;99563.66;5036759;28;2050;-71
2023/11/11 08:57:54;;;;;;;;;;;;;;;19.34;47.87;99564.41;5038775;28;2211;-71
2023/11/11 09:00:21;;;;;;;;;;;;;;;19.33;47.73;99572.28;5036691;28;6033;-72
2023/11/11 09:02:49;;;;;;;;;;;;;;;19.33;47.38;99563.66;5036739;28;2286;-69
2023/11/11 09:05:16;;;;;;;;;;;;;;;19.32;47.35;99564.34;5036881;28;2779;-75
2023/11/11 09:07:42;;;;;;;;;;;;;;;19.30;47.16;99567.88;5041864;28;2034;-72
2023/11/11 09:10:09;;;;;;;;;;;;;;;19.31;47.16;99571.47;5038878;28;1924;-75
2023/11/11 09:12:35;;;;;;;;;;;;;;;19.29;47.06;99563.56;5036918;28;1923;-74
2023/11/11 09:15:05;;;;;;;;;;;;;;;19.30;47.02;99561.41;5055954;28;2162;-75
2023/11/11 09:17:31;;;;;;;;;;;;;;;19.31;47.03;99562.88;5037540;28;2058;-75
2023/11/11 09:19:58;;;;;;;;;;;;;;;19.32;47.03;99570.09;5038016;28;2092;-75
2023/11/11 09:22:25;;;;;;;;;;;;;;;19.33;47.01;99560.78;5038371;28;2380;-77
2023/11/11 09:24:51;;;;;;;;;;;;;;;19.33;46.97;99565.81;5035347;28;2314;-74
2023/11/11 09:27:18;;;;;;;;;;;;;;;19.34;47.22;99561.53;5035002;28;2073;-76
2023/11/11 09:29:45;;;;;;;;;;;;;;;19.35;47.25;99563.72;5037576;28;2129;-76
2023/11/11 09:32:11;;;;;;;;;;;;;;;19.35;46.58;99563.00;5039208;28;6471;-75
2023/11/11 09:34:42;;;;;;;;;;;;;;;19.34;46.61;99573.03;5034735;28;2157;-76
2023/11/11 09:37:08;;;;;;;;;;;;;;;19.34;46.60;99568.00;5033394;28;2082;-76
2023/11/11 09:39:35;;;;;;;;;;;;;;;19.34;46.90;99570.88;5033162;28;2151;-76
2023/11/11 09:42:01;;;;;;;;;;;;;;;19.34;47.06;99570.16;5035137;28;2034;-75
2023/11/11 09:44:28;;;;;;;;;;;;;;;19.35;47.05;99563.00;5037926;28;2077;-76
2023/11/11 09:46:58;;;;;;;;;;;;;;;19.35;47.03;99569.47;5034373;28;2205;-77
2023/11/11 09:49:26;;;;;;;;;;;;;;;19.36;46.99;99575.97;5037140;28;1803;-76
2023/11/11 09:51:53;;;;;;;;;;;;;;;19.36;46.81;99570.22;5038853;28;1796;-76
2023/11/11 09:54:20;;;;;;;;;;;;;;;19.37;46.78;99571.66;5038552;28;1780;-76
2023/11/11 09:56:47;;;;;;;;;;;;;;;19.39;46.83;99574.59;5037051;28;2136;-76
2023/11/11 09:59:16;;;;;;;;;;;;;;;19.39;47.04;99568.88;5037725;28;2094;-76
2023/11/11 10:01:44;;;;;;;;;;;;;;;19.39;47.09;99568.88;5036858;28;6282;-76
2023/11/11 10:04:10;;;;;;;;;;;;;;;19.41;47.26;99577.53;5038333;28;2109;-76
2023/11/11 10:06:37;;;;;;;;;;;;;;;19.42;47.21;99567.50;5047258;28;1676;-76
2023/11/11 10:09:04;;;;;;;;;;;;;;;19.42;47.17;99568.25;5038452;28;2243;-76
2023/11/11 10:11:31;;;;;;;;;;;;;;;19.41;46.95;99571.81;5036427;28;2074;-76
2023/11/11 10:13:57;;;;;;;;;;;;;;;19.41;47.16;99571.81;5036645;28;2851;-76
2023/11/11 10:16:26;;;;;;;;;;;;;;;19.39;47.11;99574.59;5033557;28;2356;-71
2023/11/11 10:18:53;;;;;;;;;;;;;;;19.30;47.69;99575.75;5034208;28;2192;-75
2023/11/11 10:21:22;;;;;;;;;;;;;;;19.22;47.50;99574.13;5035903;28;2176;-76
2023/11/11 10:23:49;;;;;;;;;;;;;;;19.22;47.00;99577.00;5038630;28;2934;-73
2023/11/11 10:26:16;;;;;;;;;;;;;;;19.30;47.08;99572.91;5038600;28;2531;-74
2023/11/11 10:28:51;;;;;;;;;;;;;;;19.34;47.11;99573.03;5036813;28;2144;-75
2023/11/11 10:31:23;;;;;;;;;;;;;;;19.37;47.45;99571.66;5036885;28;6049;-75
2023/11/11 10:33:50;;;;;;;;;;;;;;;19.33;47.76;99569.41;5037352;28;2161;-76
2023/11/11 10:36:18;;;;;;;;;;;;;;;19.33;47.38;99569.41;5037882;28;2074;-77
2023/11/11 10:38:44;;;;;;;;;;;;;;;19.39;47.43;99580.34;5037665;28;2204;-75
2023/11/11 10:41:13;;;;;;;;;;;;;;;19.40;47.68;99587.53;5039674;28;1991;-72
2023/11/11 10:43:40;;;;;;;;;;;;;;;19.41;47.56;99583.28;5037054;28;2105;-76
2023/11/11 10:46:07;;;;;;;;;;;;;;;19.41;47.98;99589.03;5036898;28;2140;-74
2023/11/11 10:48:33;;;;;;;;;;;;;;;19.44;48.08;99587.66;5035316;28;2780;-76
2023/11/11 10:51:00;;;;;;;;;;;;;;;19.44;48.66;99599.16;5039484;28;2122;-77
2023/11/11 10:53:27;;;;;;;;;;;;;;;19.51;48.49;99600.78;5034906;28;2135;-72
2023/11/11 10:55:54;;;;;;;;;;;;;;;19.49;48.18;99592.13;5039056;28;2570;-71
2023/11/11 10:58:21;;;;;;;;;;;;;;;19.48;48.28;99598.56;5033887;28;2172;-72
2023/11/11 11:00:48;;;;;;;;;;;;;;;19.40;50.39;99596.16;5033584;28;6297;-73
2023/11/11 11:03:16;;;;;;;;;;;;;;;19.48;49.35;99595.69;5034714;28;2184;-72
2023/11/11 11:05:49;;;;;;;;;;;;;;;19.53;48.71;99595.13;5025247;28;2565;-73
2023/11/11 11:08:25;;;;;;;;;;;;;;;19.56;48.75;99585.19;5036587;28;2059;-73
2023/11/11 11:10:55;;;;;;;;;;;;;;;19.58;49.09;99590.22;5034895;28;2190;-74
2023/11/11 11:13:22;;;;;;;;;;;;;;;19.57;49.15;99592.38;5034936;28;2297;-74
2023/11/11 11:15:49;;;;;;;;;;;;;;;19.58;49.13;99590.22;5037441;28;2070;-74
2023/11/11 11:18:20;;;;;;;;;;;;;;;19.59;50.45;99592.44;5038925;28;2226;-74
2023/11/11 11:20:46;;;;;;;;;;;;;;;19.53;51.82;99598.00;5035118;28;2184;-73
2023/11/11 11:23:13;;;;;;;;;;;;;;;19.59;51.06;99601.03;5040007;28;2197;-73
2023/11/11 11:25:45;;;;;;;;;;;;;;;19.56;51.76;99598.78;5045982;28;2104;-72
2023/11/11 11:28:11;;;;;;;;;;;;;;;19.56;50.82;99605.28;5039393;28;2082;-72
2023/11/11 11:30:42;;;;;;;;;;;;;;;19.59;51.75;99603.19;5035278;28;7336;-73
2023/11/11 11:33:14;;;;;;;;;;;;;;;19.70;51.10;99609.97;5037413;28;2172;-70
2023/11/11 11:35:44;;;;;;;;;;;;;;;19.46;50.04;99596.34;5036438;28;2179;-62
2023/11/11 11:38:10;;;;;;;;;;;;;;;19.50;51.22;99602.22;5041889;28;2178;-67
2023/11/11 11:40:37;;;;;;;;;;;;;;;19.59;51.51;99598.19;5037090;28;2290;-67
2023/11/11 11:43:08;;;;;;;;;;;;;;;19.64;50.52;99599.75;5038314;28;2112;-67
2023/11/11 11:45:35;;;;;;;;;;;;;;;19.65;50.29;99601.22;5039588;28;2118;-69
2023/11/11 11:48:01;;;;;;;;;;;;;;;19.69;50.78;99599.91;5038805;28;2163;-66
2023/11/11 11:50:27;;;;;;;;;;;;;;;19.64;50.43;99605.50;5038771;28;2194;-66
2023/11/11 11:52:54;;;;;;;;;;;;;;;19.63;50.00;99606.91;5041409;28;2145;-66
2023/11/11 11:55:22;;;;;;;;;;;;;;;19.62;50.15;99607.56;5040056;28;2156;-66
2023/11/11 11:57:52;;;;;;;;;;;;;;;19.62;50.06;99610.44;5041024;28;1641;-66
2023/11/11 12:00:19;;;;;;;;;;;;;;;19.61;50.10;99612.59;5041181;28;6218;-66
2023/11/11 12:02:45;;;;;;;;;;;;;;;19.62;50.28;99608.31;5037477;28;2098;-66
2023/11/11 12:05:12;;;;;;;;;;;;;;;19.61;50.21;99609.72;5040226;28;2059;-66
2023/11/11 12:07:39;;;;;;;;;;;;;;;19.62;50.43;99614.06;5041485;28;2018;-66
2023/11/11 12:10:06;;;;;;;;;;;;;;;19.63;50.47;99612.66;5040003;28;2144;-66
2023/11/11 12:12:33;;;;;;;;;;;;;;;19.62;50.42;99614.06;5036585;28;3175;-66
2023/11/11 12:14:59;;;;;;;;;;;;;;;19.63;50.50;99618.41;5038633;28;2175;-66
2023/11/11 12:17:26;;;;;;;;;;;;;;;19.63;50.42;99621.28;5038905;28;2125;-66
2023/11/11 12:19:57;;;;;;;;;;;;;;;19.63;50.42;99612.66;5039720;28;2203;-66
2023/11/11 12:22:24;;;;;;;;;;;;;;;19.63;50.63;99621.28;5039111;28;2144;-66
2023/11/11 12:24:54;;;;;;;;;;;;;;;19.63;50.57;99626.25;5041688;28;2085;-66
2023/11/11 12:27:21;;;;;;;;;;;;;;;19.63;50.51;99620.53;5039408;28;2109;-66
2023/11/11 12:29:48;;;;;;;;;;;;;;;19.63;50.63;99626.25;5039444;28;1788;-66
2023/11/11 12:32:14;;;;;;;;;;;;;;;19.63;50.60;99629.88;5040077;28;6012;-66
2023/11/11 12:34:41;;;;;;;;;;;;;;;19.62;50.83;99628.41;5040689;28;2172;-66
2023/11/11 12:37:08;;;;;;;;;;;;;;;19.63;50.74;99638.50;5038176;28;2268;-66
2023/11/11 12:39:37;;;;;;;;;;;;;;;19.64;50.67;99639.22;5038234;28;2220;-66
2023/11/11 12:42:04;;;;;;;;;;;;;;;19.63;50.73;99635.63;5039568;28;2159;-66
2023/11/11 12:44:37;;;;;;;;;;;;;;;19.62;50.88;99631.28;5039357;28;2066;-66
2023/11/11 12:47:10;;;;;;;;;;;;;;;19.63;50.82;99632.75;5038590;28;2090;-66
2023/11/11 12:49:38;;;;;;;;;;;;;;;19.64;50.83;99633.47;5038679;28;2067;-66
2023/11/11 12:52:14;;;;;;;;;;;;;;;19.64;50.68;99634.22;5043565;28;2148;-66
2023/11/11 12:54:41;;;;;;;;;;;;;;;19.64;50.87;99639.97;5038643;28;2101;-66
2023/11/11 12:57:07;;;;;;;;;;;;;;;19.65;50.88;99634.94;5039527;28;2140;-66